Time;durP1;ratioP1;P1;durP2;ratioP2;P2;SDS_P1;SDS_P2;PMS_P1;PMS_P2;Temp;Humidity;BMP_temperature;BMP_pressure;BME280_temperature;BME280_humidity;BME280_pressure;Samples;Min_cycle;Max_cycle;Signal;HPM_P1;HPM_P2
2022/11/10 00:00:38;;;;;;;11.80;3.22;;;;;;;8.73;100.00;101487.75;5107483;28;20074;-48
2022/11/10 00:03:07;;;;;;;11.00;3.08;;;;;;;8.70;100.00;101498.34;5092798;28;20051;-47
2022/11/10 00:05:37;;;;;;;14.75;3.75;;;;;;;8.67;100.00;101504.63;5098474;28;20137;-52
2022/11/10 00:08:07;;;;;;;17.02;3.72;;;;;;;8.67;100.00;101509.00;5102130;28;20122;-53
2022/11/10 00:10:55;;;;;;;12.00;3.35;;;;;;;8.65;100.00;101516.09;5090131;28;20040;-55
2022/11/10 00:13:28;;;;;;;13.27;3.22;;;;;;;8.61;100.00;101510.97;5100571;28;20109;-54
2022/11/10 00:18:59;;;;;;;13.55;3.20;;;;;;;8.55;100.00;101523.50;5068940;28;20082;-54
2022/11/10 00:21:27;;;;;;;16.25;3.20;;;;;;;8.53;100.00;101514.88;5084831;28;20087;-53
2022/11/10 00:23:55;;;;;;;12.48;3.28;;;;;;;8.45;100.00;101510.84;5086729;28;20490;-55
2022/11/10 00:26:23;;;;;;;20.10;3.78;;;;;;;8.46;100.00;101514.31;5107094;28;20044;-54
2022/11/10 00:28:54;;;;;;;13.10;3.30;;;;;;;8.46;100.00;101519.56;5102275;28;20040;-54
2022/11/10 00:31:22;;;;;;;19.42;3.53;;;;;;;8.45;100.00;101528.31;5104207;28;20113;-53
2022/11/10 00:33:50;;;;;;;12.30;3.25;;;;;;;8.44;100.00;101527.47;5101881;28;20051;-52
2022/11/10 00:36:18;;;;;;;16.65;3.70;;;;;;;8.42;100.00;101523.19;5095807;28;20040;-54
2022/11/10 00:38:46;;;;;;;14.38;3.40;;;;;;;8.40;100.00;101517.19;5107818;28;20497;-54
2022/11/10 00:41:14;;;;;;;15.60;3.72;;;;;;;8.40;100.00;101511.94;5097790;28;20474;-53
2022/11/10 00:43:42;;;;;;;12.43;3.10;;;;;;;8.39;100.00;101520.72;5100880;28;20059;-54
2022/11/10 00:46:12;;;;;;;12.50;3.25;;;;;;;8.42;100.00;101523.19;5105619;28;20051;-53
2022/11/10 00:48:40;;;;;;;13.32;3.28;;;;;;;8.41;100.00;101524.13;5093991;28;20052;-54
2022/11/10 00:51:17;;;;;;;18.00;3.65;;;;;;;8.38;100.00;101516.41;5105527;28;20050;-54
2022/11/10 00:53:46;;;;;;;14.27;3.22;;;;;;;8.37;100.00;101522.56;5101066;28;20202;-51
2022/11/10 00:56:14;;;;;;;10.25;3.40;;;;;;;8.38;100.00;101532.13;5094122;28;20109;-53
2022/11/10 00:58:42;;;;;;;10.23;3.30;;;;;;;8.39;100.00;101533.84;5107091;28;20040;-53
2022/11/10 01:01:13;;;;;;;12.48;3.28;;;;;;;8.37;100.00;101539.16;5096345;28;20055;-53
2022/11/10 01:03:41;;;;;;;12.52;3.40;;;;;;;8.38;100.00;101538.19;5099798;28;20376;-53
2022/11/10 01:06:14;;;;;;;16.90;4.03;;;;;;;8.38;100.00;101551.31;5105056;28;20036;-52
2022/11/10 01:08:43;;;;;;;12.52;3.72;;;;;;;8.38;100.00;101547.84;5093965;27;20048;-54
2022/11/10 01:11:14;;;;;;;14.98;4.20;;;;;;;8.37;100.00;101554.00;5104820;28;20560;-54
2022/11/10 01:13:46;;;;;;;18.05;3.22;;;;;;;8.36;100.00;101554.94;5101259;28;20434;-53
2022/11/10 01:16:18;;;;;;;15.95;3.83;;;;;;;8.36;100.00;101560.19;5096079;28;20051;-53
2022/11/10 01:18:49;;;;;;;;;;;;;;;8.33;100.00;101574.28;5107214;28;20047;-53
2022/11/10 01:21:17;;;;;;;12.23;3.90;;;;;;;8.31;100.00;101578.72;5096831;28;19923;-54
2022/11/10 01:23:45;;;;;;;13.05;3.47;;;;;;;8.33;100.00;101571.66;5098297;28;20131;-53
2022/11/10 01:26:15;;;;;;;14.60;3.95;;;;;;;8.31;100.00;101581.34;5104538;28;20098;-52
2022/11/10 01:28:43;;;;;;;14.25;3.60;;;;;;;8.28;100.00;101582.31;5101619;28;20043;-50
2022/11/10 01:31:13;;;;;;;11.82;3.00;;;;;;;8.26;100.00;101585.94;5104696;28;20123;-54
2022/11/10 01:33:43;;;;;;;14.88;3.17;;;;;;;8.23;100.00;101597.38;5099204;28;20063;-53
2022/11/10 01:36:12;;;;;;;12.65;3.40;;;;;;;8.25;100.00;101586.88;5095581;27;20383;-54
2022/11/10 01:38:42;;;;;;;16.55;4.57;;;;;;;8.23;100.00;101593.94;5106630;28;20051;-52
2022/11/10 01:41:12;;;;;;;12.90;3.63;;;;;;;8.21;100.00;101585.31;5094905;28;20049;-55
2022/11/10 01:43:40;;;;;;;14.68;3.83;;;;;;;8.18;100.00;101593.28;5099826;28;20139;-52
2022/11/10 01:46:10;;;;;;;14.57;3.25;;;;;;;8.17;100.00;101588.97;5104229;28;20047;-55
2022/11/10 01:48:43;;;;;;;14.13;3.28;;;;;;;8.17;100.00;101588.97;5091638;28;20502;-54
2022/11/10 01:51:17;;;;;;;14.30;3.45;;;;;;;8.17;100.00;101592.44;5103197;28;20093;-52
2022/11/10 01:53:50;;;;;;;11.25;3.20;;;;;;;8.15;100.00;101588.16;5100262;28;20514;-54
2022/11/10 01:56:20;;;;;;;16.48;3.45;;;;;;;8.15;100.00;101588.16;5093384;28;20129;-54
2022/11/10 01:58:54;;;;;;;15.98;3.47;;;;;;;8.11;100.00;101588.31;5106317;28;20516;-54
2022/11/10 02:01:23;;;;;;;13.88;3.70;;;;;;;8.13;100.00;101583.00;5097711;28;20150;-54
2022/11/10 02:03:53;;;;;;;14.68;3.10;;;;;;;8.12;100.00;101589.16;5097757;28;20554;-53
2022/11/10 02:06:29;;;;;;;15.68;3.65;;;;;;;8.10;100.00;101588.38;5105333;28;20126;-51
2022/11/10 02:08:58;;;;;;;12.07;3.28;;;;;;;8.10;100.00;101588.38;5093366;28;20073;-50
2022/11/10 02:11:27;;;;;;;14.80;3.40;;;;;;;8.10;100.00;101585.75;5109588;28;20047;-51
2022/11/10 02:13:55;;;;;;;14.95;3.67;;;;;;;8.12;100.00;101583.91;5097373;28;20048;-48
2022/11/10 02:16:24;;;;;;;14.07;3.80;;;;;;;8.17;100.00;101594.22;5105834;28;20047;-49
2022/11/10 02:18:52;;;;;;;20.60;4.25;;;;;;;8.19;100.00;101603.69;5092739;28;20884;-49
2022/11/10 02:21:22;;;;;;;15.77;3.55;;;;;;;8.19;100.00;101622.03;5102193;27;20101;-48
2022/11/10 02:23:52;;;;;;;14.13;3.30;;;;;;;8.18;100.00;101624.72;5100760;28;20131;-51
2022/11/10 02:26:24;;;;;;;15.50;4.10;;;;;;;8.17;100.00;101617.78;5093500;28;20067;-47
2022/11/10 02:28:52;;;;;;;20.42;4.03;;;;;;;8.14;100.00;101629.25;5089333;28;20122;-46
2022/11/10 02:31:20;;;;;;;18.60;3.92;;;;;;;8.10;100.00;101636.38;5089592;28;20130;-48
2022/11/10 02:33:48;;;;;;;13.18;3.83;;;;;;;8.11;100.00;101645.09;5091339;28;20062;-48
2022/11/10 02:36:16;;;;;;;20.63;4.63;;;;;;;8.12;100.00;101623.22;5091323;28;20040;-48
2022/11/10 02:38:45;;;;;;;17.77;3.75;;;;;;;8.15;100.00;101627.47;5092630;28;20056;-47
2022/11/10 02:41:13;;;;;;;17.40;4.70;;;;;;;8.20;100.00;101613.25;5091102;28;20059;-50
2022/11/10 02:43:42;;;;;;;23.75;4.05;;;;;;;8.20;100.00;101615.88;5089059;28;20592;-48
2022/11/10 02:46:10;;;;;;;20.15;4.03;;;;;;;8.21;100.00;101609.72;5091732;28;20105;-48
2022/11/10 02:48:38;;;;;;;14.25;3.70;;;;;;;8.21;100.00;101617.59;5092161;28;20076;-47
2022/11/10 02:51:06;;;;;;;17.45;3.67;;;;;;;8.26;100.00;101622.63;5092833;28;20056;-51
2022/11/10 02:53:34;;;;;;;16.98;4.07;;;;;;;8.27;100.00;101626.94;5092474;28;20123;-51
2022/11/10 02:56:04;;;;;;;19.45;4.13;;;;;;;8.24;100.00;101629.72;5091880;28;20115;-47
2022/11/10 02:58:32;;;;;;;14.55;3.22;;;;;;;8.27;100.00;101633.03;5091898;28;20129;-47
2022/11/10 03:01:04;;;;;;;19.05;4.30;;;;;;;8.28;100.00;101645.22;5092239;28;20040;-50
2022/11/10 03:03:32;;;;;;;19.98;4.30;;;;;;;8.32;100.00;101647.69;5091040;28;20058;-51
2022/11/10 03:06:00;;;;;;;19.75;3.90;;;;;;;8.33;100.00;101649.41;5090998;28;20075;-47
2022/11/10 03:08:29;;;;;;;19.80;4.00;;;;;;;8.34;100.00;101653.75;5092488;28;20059;-51
2022/11/10 03:10:58;;;;;;;14.70;3.67;;;;;;;8.34;100.00;101656.38;5092712;28;20040;-49
2022/11/10 03:13:29;;;;;;;16.23;3.63;;;;;;;8.33;100.00;101658.16;5092542;28;20048;-50
2022/11/10 03:16:18;;;;;;;14.95;3.50;;;;;;;8.31;100.00;101664.38;5091991;28;20040;-52
2022/11/10 03:18:46;;;;;;;17.60;4.00;;;;;;;8.31;100.00;101661.75;5092370;28;20070;-49
2022/11/10 03:21:15;;;;;;;13.10;3.83;;;;;;;8.31;100.00;101673.06;5089870;28;20109;-51
2022/11/10 03:23:43;;;;;;;17.63;4.15;;;;;;;8.30;100.00;101668.75;5088931;28;20127;-50
2022/11/10 03:26:11;;;;;;;15.82;3.25;;;;;;;8.29;100.00;101678.38;5091964;28;20658;-53
2022/11/10 03:28:41;;;;;;;13.82;3.78;;;;;;;8.26;100.00;101686.38;5092438;28;20055;-51
2022/11/10 03:31:09;;;;;;;15.73;3.33;;;;;;;8.26;100.00;101691.63;5090660;28;20059;-51
2022/11/10 03:33:37;;;;;;;13.95;3.47;;;;;;;8.25;100.00;101700.41;5089511;28;20048;-48
2022/11/10 03:36:06;;;;;;;16.33;3.70;;;;;;;8.22;100.00;101694.41;5088095;28;20410;-51
2022/11/10 03:38:34;;;;;;;11.20;2.95;;;;;;;8.21;100.00;101690.97;5087971;28;20464;-50
2022/11/10 03:41:02;;;;;;;16.13;4.20;;;;;;;8.18;100.00;101696.34;5089113;28;20036;-48
2022/11/10 03:43:48;;;;;;;16.02;3.70;;;;;;;8.20;100.00;101689.25;5092165;28;20051;-47
2022/11/10 03:46:17;;;;;;;19.50;4.20;;;;;;;8.18;100.00;101703.31;5092236;28;20571;-50
2022/11/10 03:48:45;;;;;;;18.05;3.95;;;;;;;8.15;100.00;101708.69;5091989;28;20044;-47
2022/11/10 03:51:21;;;;;;;14.25;3.65;;;;;;;8.13;100.00;101709.59;5091996;28;20048;-48
2022/11/10 03:53:49;;;;;;;12.77;3.42;;;;;;;8.13;100.00;101724.50;5091626;28;20048;-49
2022/11/10 03:56:17;;;;;;;17.83;4.10;;;;;;;8.13;100.00;101722.72;5091462;28;20048;-48
2022/11/10 03:58:45;;;;;;;18.65;3.60;;;;;;;8.10;100.00;101728.09;5091992;28;20052;-48
2022/11/10 04:01:15;;;;;;;14.52;3.45;;;;;;;8.09;100.00;101728.16;5095515;28;20394;-49
2022/11/10 04:03:43;;;;;;;15.20;3.58;;;;;;;8.08;100.00;101729.06;5095307;28;20068;-50
2022/11/10 04:09:05;;;;;;;14.82;3.30;;;;;;;8.07;100.00;101729.97;5095505;28;20563;-50
2022/11/10 04:17:07;;;;;;;12.75;3.60;;;;;;;8.01;100.00;101749.41;5095386;28;20076;-49
2022/11/10 04:19:35;;;;;;;10.32;3.08;;;;;;;7.99;100.00;101753.00;5092979;28;20052;-50
2022/11/10 04:22:03;;;;;;;15.82;3.55;;;;;;;7.98;100.00;101754.78;5091585;28;20044;-52
2022/11/10 04:24:31;;;;;;;14.23;4.13;;;;;;;7.97;100.00;101768.78;5094608;28;20482;-51
2022/11/10 04:26:59;;;;;;;14.63;3.95;;;;;;;7.99;100.00;101777.44;5095340;28;20105;-48
2022/11/10 04:29:27;;;;;;;21.33;3.85;;;;;;;7.94;100.00;101772.38;5095433;28;20090;-50
2022/11/10 04:31:56;;;;;;;20.27;3.67;;;;;;;7.94;100.00;101788.09;5095210;28;20119;-50
2022/11/10 04:34:26;;;;;;;15.18;3.38;;;;;;;7.92;100.00;101792.53;5092820;28;20514;-52
2022/11/10 04:36:54;;;;;;;16.88;3.40;;;;;;;7.90;100.00;101801.38;5091893;28;20524;-48
2022/11/10 04:39:22;;;;;;;14.45;3.38;;;;;;;7.88;100.00;101803.19;5094858;28;20044;-48
2022/11/10 04:41:50;;;;;;;17.52;3.67;;;;;;;7.86;100.00;101811.09;5095126;28;20102;-48
2022/11/10 04:44:18;;;;;;;12.90;2.90;;;;;;;7.86;100.00;101807.66;5095003;28;20052;-50
2022/11/10 04:46:46;;;;;;;15.23;2.97;;;;;;;7.83;100.00;101808.59;5094843;28;20048;-49
2022/11/10 04:49:14;;;;;;;14.48;3.80;;;;;;;7.78;100.00;101808.81;5092243;28;20072;-49
2022/11/10 04:51:45;;;;;;;17.42;3.15;;;;;;;7.77;100.00;101820.19;5091273;28;20047;-51
2022/11/10 04:54:14;;;;;;;15.50;3.25;;;;;;;7.77;100.00;101819.31;5094996;28;20059;-47
2022/11/10 04:56:42;;;;;;;14.55;3.95;;;;;;;7.78;100.00;101821.03;5094424;28;20040;-47
2022/11/10 04:59:11;;;;;;;13.70;3.33;;;;;;;7.81;100.00;101804.34;5094677;28;20043;-52
2022/11/10 05:01:39;;;;;;;14.82;3.67;;;;;;;7.82;100.00;101808.69;5094377;28;20040;-51
2022/11/10 05:04:07;;;;;;;12.60;2.90;;;;;;;7.83;100.00;101811.22;5094509;28;20052;-51
2022/11/10 05:06:35;;;;;;;16.65;3.15;;;;;;;7.87;100.00;101809.34;5094035;28;20044;-48
2022/11/10 05:09:05;;;;;;;12.40;3.50;;;;;;;7.92;100.00;101812.63;5093960;28;20048;-50
2022/11/10 05:11:33;;;;;;;19.65;3.53;;;;;;;7.92;100.00;101810.00;5093977;28;20093;-48
2022/11/10 05:14:01;;;;;;;18.58;3.83;;;;;;;7.94;100.00;101816.06;5094703;28;20043;-50
2022/11/10 05:16:29;;;;;;;13.63;3.25;;;;;;;7.94;100.00;101810.81;5094143;28;20380;-53
2022/11/10 05:18:57;;;;;;;14.55;3.72;;;;;;;8.00;100.00;101804.47;5093353;28;20076;-53
2022/11/10 05:21:25;;;;;;;19.30;3.30;;;;;;;8.06;100.00;101814.75;5090715;28;20109;-51
2022/11/10 05:23:53;;;;;;;14.43;3.28;;;;;;;8.03;100.00;101814.84;5090246;28;20054;-53
2022/11/10 05:26:23;;;;;;;14.73;3.38;;;;;;;7.99;100.00;101823.72;5090718;28;20056;-53
2022/11/10 05:28:51;;;;;;;18.13;3.53;;;;;;;7.96;100.00;101829.94;5093299;28;20051;-53
2022/11/10 05:31:20;;;;;;;17.60;3.53;;;;;;;7.94;100.00;101826.53;5093520;28;20508;-50
2022/11/10 05:33:48;;;;;;;13.55;3.45;;;;;;;7.95;100.00;101831.72;5093311;28;20519;-48
2022/11/10 05:36:16;;;;;;;14.35;2.85;;;;;;;7.97;100.00;101830.81;5093042;28;20043;-50
2022/11/10 05:38:44;;;;;;;15.73;3.20;;;;;;;7.98;100.00;101829.91;5093776;28;20433;-49
2022/11/10 05:41:12;;;;;;;12.02;2.90;;;;;;;7.99;100.00;101828.97;5093826;28;20083;-50
2022/11/10 05:43:42;;;;;;;15.23;3.15;;;;;;;7.98;100.00;101835.16;5093757;28;20521;-47
2022/11/10 05:46:10;;;;;;;15.25;2.85;;;;;;;7.95;100.00;101834.34;5093776;28;20044;-48
2022/11/10 05:48:38;;;;;;;18.40;3.40;;;;;;;7.97;100.00;101836.88;5093501;28;20123;-48
2022/11/10 05:51:06;;;;;;;15.25;2.95;;;;;;;7.95;100.00;101834.34;5092184;28;20040;-48
2022/11/10 05:53:35;;;;;;;20.30;3.97;;;;;;;7.95;100.00;101839.56;5093963;28;20047;-48
2022/11/10 05:56:04;;;;;;;13.70;3.30;;;;;;;7.91;100.00;101832.75;5093588;28;20048;-49
2022/11/10 05:58:32;;;;;;;15.70;2.65;;;;;;;7.97;100.00;101836.03;5089922;28;20036;-48
2022/11/10 06:01:01;;;;;;;19.20;3.45;;;;;;;7.98;100.00;101843.00;5091185;28;20496;-51
2022/11/10 06:03:29;;;;;;;13.75;3.30;;;;;;;7.92;100.00;101850.19;5091378;28;20048;-48
2022/11/10 06:05:58;;;;;;;11.65;2.35;;;;;;;7.90;100.00;101854.59;5089629;28;20055;-53
2022/11/10 06:08:26;;;;;;;14.70;3.00;;;;;;;7.90;100.00;101854.59;5092405;28;20594;-53
2022/11/10 06:10:54;;;;;;;16.38;2.88;;;;;;;7.89;100.00;101852.03;5090021;28;20505;-51
2022/11/10 06:13:22;;;;;;;16.70;4.13;;;;;;;7.87;100.00;101854.72;5089983;28;20067;-53
2022/11/10 06:15:51;;;;;;;13.93;3.25;;;;;;;7.87;100.00;101856.50;5089834;28;20052;-51
2022/11/10 06:18:20;;;;;;;19.13;3.83;;;;;;;7.82;100.00;101864.50;5089209;28;20040;-52
2022/11/10 06:20:48;;;;;;;15.02;4.10;;;;;;;7.84;100.00;101864.44;5089612;28;20060;-52
2022/11/10 06:23:16;;;;;;;16.33;3.38;;;;;;;7.83;100.00;101874.09;5090426;28;20138;-51
2022/11/10 06:25:45;;;;;;;13.75;2.80;;;;;;;7.82;100.00;101884.63;5092297;28;20123;-49
2022/11/10 06:28:13;;;;;;;13.77;2.90;;;;;;;7.82;100.00;101885.47;5089753;28;20048;-52
2022/11/10 06:30:41;;;;;;;14.38;3.13;;;;;;;7.79;100.00;101893.44;5089405;28;20067;-48
2022/11/10 06:33:10;;;;;;;16.45;3.63;;;;;;;7.80;100.00;101892.53;5088975;28;20097;-54
2022/11/10 06:35:40;;;;;;;11.40;3.03;;;;;;;7.80;100.00;101910.88;5088864;28;20058;-50
2022/11/10 06:38:11;;;;;;;18.98;3.22;;;;;;;7.76;100.00;101904.88;5089324;28;20052;-49
2022/11/10 06:40:39;;;;;;;19.48;3.30;;;;;;;7.72;100.00;101911.16;5092406;28;20048;-50
2022/11/10 06:43:08;;;;;;;14.05;2.83;;;;;;;7.71;100.00;101917.28;5092784;28;20078;-47
2022/11/10 06:45:36;;;;;;;16.92;3.05;;;;;;;7.71;100.00;101929.53;5092578;28;20101;-49
2022/11/10 06:48:06;;;;;;;16.60;3.10;;;;;;;7.71;100.00;101934.78;5092764;28;20044;-50
2022/11/10 06:50:34;;;;;;;13.57;3.13;;;;;;;7.70;100.00;101940.91;5092433;28;20436;-51
2022/11/10 06:53:09;;;;;;;12.85;2.78;;;;;;;7.70;100.00;101948.75;5092665;28;20060;-47
2022/11/10 06:55:38;;;;;;;17.60;3.63;;;;;;;7.69;100.00;101947.03;5092258;28;20047;-49
2022/11/10 06:58:06;;;;;;;12.93;3.40;;;;;;;7.68;100.00;101953.22;5091900;28;20076;-52
2022/11/10 07:00:34;;;;;;;20.20;3.45;;;;;;;7.66;100.00;101952.41;5092022;28;20056;-50
2022/11/10 07:03:04;;;;;;;13.25;2.72;;;;;;;7.65;100.00;101955.91;5092219;28;20040;-52
2022/11/10 07:05:34;;;;;;;11.68;2.90;;;;;;;7.68;100.00;101958.44;5090681;28;20523;-53
2022/11/10 07:08:03;;;;;;;11.60;2.95;;;;;;;7.65;100.00;101974.25;5087921;28;20052;-52
2022/11/10 07:10:33;;;;;;;17.13;3.80;;;;;;;7.65;100.00;101967.28;5088411;28;20047;-53
2022/11/10 07:13:03;;;;;;;14.15;3.00;;;;;;;7.66;100.00;101978.59;5089376;28;20064;-52
2022/11/10 07:15:32;;;;;;;13.95;3.50;;;;;;;7.67;100.00;101982.91;5088714;28;20109;-53
2022/11/10 07:18:01;;;;;;;13.80;3.15;;;;;;;7.67;100.00;101983.75;5088738;28;20044;-52
2022/11/10 07:20:29;;;;;;;15.32;3.00;;;;;;;7.68;100.00;101997.72;5090213;28;20048;-53
2022/11/10 07:22:59;;;;;;;15.95;3.28;;;;;;;7.71;100.00;102005.47;5092187;28;20052;-51
2022/11/10 07:25:27;;;;;;;16.88;3.47;;;;;;;7.75;100.00;102009.69;5092078;28;20479;-53
2022/11/10 07:28:01;;;;;;;15.48;3.35;;;;;;;7.81;100.00;102008.63;5092066;28;20039;-53
2022/11/10 07:30:30;;;;;;;15.45;3.75;;;;;;;7.87;100.00;102001.41;5092070;28;20134;-52
2022/11/10 07:32:59;;;;;;;15.32;3.45;;;;;;;7.97;100.00;101996.69;5091247;28;20090;-52
2022/11/10 07:35:29;;;;;;;15.15;3.35;;;;;;;8.21;100.00;102008.06;5092744;28;20066;-51
2022/11/10 07:38:04;;;;;;;18.13;3.80;;;;;;;8.17;100.00;101997.75;5093118;28;20421;-53
2022/11/10 07:40:33;;;;;;;16.27;3.95;;;;;;;8.34;100.00;102002.34;5092003;28;20056;-53
2022/11/10 07:43:02;;;;;;;17.95;3.78;;;;;;;8.54;100.00;101999.03;5093883;28;20048;-55
2022/11/10 07:45:31;;;;;;;15.55;2.95;;;;;;;8.66;100.00;102010.78;5094665;28;20051;-54
2022/11/10 07:48:03;;;;;;;18.63;3.60;;;;;;;8.83;100.00;102012.78;5092228;28;20075;-53
2022/11/10 07:50:32;;;;;;;16.35;3.47;;;;;;;8.95;100.00;102015.75;5094658;28;20063;-52
2022/11/10 07:53:06;;;;;;;12.77;3.10;;;;;;;9.05;100.00;102010.16;5093300;28;20048;-51
2022/11/10 07:55:35;;;;;;;15.40;3.22;;;;;;;9.17;100.00;102004.41;5091885;28;20399;-51
2022/11/10 07:58:05;;;;;;;15.32;3.42;;;;;;;9.30;100.00;102021.38;5092835;28;20044;-52
2022/11/10 08:00:34;;;;;;;17.17;3.55;;;;;;;9.36;100.00;102022.03;5094459;28;20552;-51
2022/11/10 08:03:03;;;;;;;17.83;3.70;;;;;;;9.58;100.00;102021.97;5096428;28;20036;-54
2022/11/10 08:05:32;;;;;;;14.00;3.33;;;;;;;9.48;100.00;102029.41;5092614;28;20044;-53
2022/11/10 08:08:00;;;;;;;13.10;3.10;;;;;;;9.67;100.00;102024.22;5093770;28;20390;-53
2022/11/10 08:10:29;;;;;;;16.88;3.67;;;;;;;9.85;100.00;102037.50;5095546;28;20059;-53
2022/11/10 08:12:59;;;;;;;18.23;3.75;;;;;;;10.00;100.00;102047.34;5092647;28;20072;-52
2022/11/10 08:15:30;;;;;;;17.55;3.67;;;;;;;9.98;100.00;102046.56;5091054;28;20051;-52
2022/11/10 08:18:03;;;;;;;17.58;3.70;;;;;;;10.12;100.00;102048.59;5091568;28;20048;-54
2022/11/10 08:20:31;;;;;;;13.75;3.15;;;;;;;10.20;100.00;102056.09;5091754;28;20051;-53
2022/11/10 08:23:01;;;;;;;15.65;4.03;;;;;;;10.21;100.00;102056.06;5092506;28;20147;-53
2022/11/10 08:25:31;;;;;;;13.60;3.50;;;;;;;10.22;100.00;102063.00;5092507;28;20060;-54
2022/11/10 08:28:04;;;;;;;14.27;3.08;;;;;;;10.34;100.00;102060.78;5091605;28;20056;-54
2022/11/10 08:30:35;;;;;;;18.77;3.58;;;;;;;10.41;100.00;102056.97;5091815;28;20093;-54
2022/11/10 08:33:05;;;;;;;12.65;3.05;;;;;;;10.46;100.00;102050.56;5091483;28;20048;-55
2022/11/10 08:35:36;;;;;;;16.83;3.42;;;;;;;10.56;100.00;102052.78;5091095;28;20530;-54
2022/11/10 08:38:08;;;;;;;16.63;3.40;;;;;;;10.55;100.00;102061.59;5092196;28;20044;-56
2022/11/10 08:40:37;;;;;;;12.30;3.50;;;;;;;10.44;100.00;102064.72;5089827;28;20055;-54
2022/11/10 08:43:07;;;;;;;16.42;3.30;;;;;;;10.68;100.00;102075.91;5091824;28;20043;-53
2022/11/10 08:45:37;;;;;;;11.80;2.88;;;;;;;10.72;100.00;102077.47;5090413;28;20127;-54
2022/11/10 08:48:07;;;;;;;14.32;3.53;;;;;;;10.73;100.00;102084.44;5091320;28;20068;-55
2022/11/10 08:50:36;;;;;;;12.90;3.47;;;;;;;10.79;100.00;102078.03;5090044;28;20131;-55
2022/11/10 08:53:06;;;;;;;13.80;3.20;;;;;;;10.90;100.00;102085.44;5091933;28;20060;-53
2022/11/10 08:55:34;;;;;;;12.13;3.28;;;;;;;10.94;100.00;102087.84;5091114;28;20510;-54
2022/11/10 08:58:04;;;;;;;14.85;3.65;;;;;;;10.99;100.00;102093.75;5092002;28;20131;-55
2022/11/10 09:00:33;;;;;;;17.63;3.53;;;;;;;11.10;100.00;102097.69;5090067;28;20039;-55
2022/11/10 09:03:07;;;;;;;13.05;3.33;;;;;;;11.13;100.00;102087.84;5090867;28;20043;-55
2022/11/10 09:05:36;;;;;;;12.00;2.83;;;;;;;11.18;100.00;102092.03;5091193;28;20044;-56
2022/11/10 09:08:04;;;;;;;14.18;3.70;;;;;;;11.18;100.00;102094.66;5090504;28;20067;-55
2022/11/10 09:10:34;;;;;;;14.07;3.75;;;;;;;11.30;100.00;102102.84;5094457;28;20048;-56
2022/11/10 09:13:04;;;;;;;14.25;2.95;;;;;;;11.32;100.00;102110.66;5094519;28;20063;-56
2022/11/10 09:15:33;;;;;;;15.95;3.40;;;;;;;11.39;100.00;102124.38;5094310;28;20036;-56
2022/11/10 09:18:03;;;;;;;15.55;3.20;;;;;;;11.37;100.00;102115.69;5093365;28;20071;-56
2022/11/10 09:20:35;;;;;;;19.70;4.32;;;;;;;11.50;100.00;102109.75;5093083;28;20082;-52
2022/11/10 09:23:07;;;;;;;12.55;3.25;;;;;;;11.59;100.00;102120.75;5091195;28;20117;-53
2022/11/10 09:25:35;;;;;;;14.20;3.13;;;;;;;11.70;100.00;102112.31;5091475;28;20051;-54
2022/11/10 09:28:04;;;;;;;15.75;3.10;;;;;;;11.77;100.00;102119.03;5094167;28;20475;-54
2022/11/10 09:30:32;;;;;;;16.25;3.03;;;;;;;11.90;100.00;102113.97;5090932;28;20407;-52
2022/11/10 09:33:00;;;;;;;14.07;3.08;;;;;;;12.05;100.00;102118.47;5090809;28;20093;-55
2022/11/10 09:35:29;;;;;;;12.60;3.17;;;;;;;12.21;100.00;102110.66;5093543;28;20052;-54
2022/11/10 09:37:58;;;;;;;18.25;3.10;;;;;;;12.37;100.00;102113.34;5093361;28;20060;-53
2022/11/10 09:40:34;;;;;;;15.40;3.03;;;;;;;12.67;100.00;102121.41;5090093;28;20048;-53
2022/11/10 09:43:03;;;;;;;12.02;3.25;;;;;;;12.72;100.00;102113.25;5090189;28;20048;-54
2022/11/10 09:45:35;;;;;;;14.55;3.25;;;;;;;13.14;100.00;102113.59;5090165;28;20052;-54
2022/11/10 09:48:14;;;;;;;10.48;2.60;;;;;;;13.29;100.00;102114.53;5090375;28;20052;-55
2022/11/10 09:50:50;;;;;;;11.90;2.60;;;;;;;13.76;100.00;102111.00;5090123;28;20040;-56
2022/11/10 09:53:26;;;;;;;15.98;2.85;;;;;;;13.63;100.00;102113.50;5091828;28;20059;-55
2022/11/10 09:55:59;;;;;;;12.05;2.50;;;;;;;13.62;100.00;102111.78;5092632;28;20448;-55
2022/11/10 09:58:32;;;;;;;13.70;3.15;;;;;;;13.77;100.00;102117.13;5088418;28;20048;-55
2022/11/10 10:01:07;;;;;;;16.58;2.90;;;;;;;14.09;100.00;102112.56;5090022;28;20097;-55
2022/11/10 10:03:40;;;;;;;13.35;3.33;;;;;;;14.25;100.00;102114.28;5092125;28;20051;-55
2022/11/10 10:06:11;;;;;;;9.02;2.53;;;;;;;14.36;100.00;102119.78;5092082;28;20101;-56
2022/11/10 10:08:52;;;;;;;12.20;3.05;;;;;;;14.43;100.00;102117.63;5093507;28;20101;-55
2022/11/10 10:11:33;;;;;;;17.42;3.05;;;;;;;14.42;100.00;102129.16;5093244;28;20475;-55
2022/11/10 10:14:13;;;;;;;15.02;2.55;;;;;;;14.52;100.00;102135.59;5093456;28;20036;-54
2022/11/10 10:16:49;;;;;;;15.73;2.67;;;;;;;14.17;100.00;102151.81;5092816;28;20094;-56
2022/11/10 10:19:27;;;;;;;16.55;3.10;;;;;;;14.06;100.00;102144.50;5089907;28;20075;-55
2022/11/10 10:22:16;;;;;;;16.08;2.85;;;;;;;14.16;100.00;102150.09;5091107;28;20043;-56
2022/11/10 10:24:45;;;;;;;17.17;3.08;;;;;;;14.36;100.00;102162.97;5092620;28;20059;-55
2022/11/10 10:27:20;;;;;;;16.42;3.33;;;;;;;14.27;100.00;102158.22;5092809;28;20067;-55
2022/11/10 10:29:49;;;;;;;13.48;3.00;;;;;;;14.58;100.00;102169.63;5088723;28;20040;-56
2022/11/10 10:32:18;;;;;;;15.18;3.17;;;;;;;15.01;100.00;102174.06;5091286;28;20047;-55
2022/11/10 10:34:47;;;;;;;10.05;2.50;;;;;;;15.03;100.00;102180.97;5092231;28;20113;-54
2022/11/10 10:37:23;;;;;;;14.52;2.70;;;;;;;15.14;100.00;102188.25;5092733;28;20043;-58
2022/11/10 10:39:55;;;;;;;13.85;2.65;;;;;;;15.05;100.00;102186.16;5088504;28;20260;-58
2022/11/10 10:42:30;;;;;;;11.60;2.97;;;;;;;15.00;100.00;102182.97;5090466;28;20517;-58
2022/11/10 10:45:20;;;;;;;13.68;2.72;;;;;;;15.32;100.00;102196.81;5092277;28;20490;-57
2022/11/10 10:47:50;;;;;;;12.00;3.05;;;;;;;15.65;100.00;102187.66;5092077;28;20039;-58
2022/11/10 10:50:30;;;;;;;16.73;2.90;;;;;;;15.37;100.00;102200.03;5092146;28;20082;-58
2022/11/10 10:53:13;;;;;;;12.25;2.70;;;;;;;15.61;100.00;102188.81;5092569;28;20499;-58
2022/11/10 10:55:49;;;;;;;13.75;3.00;;;;;;;15.69;100.00;102191.81;5089606;28;20043;-58
2022/11/10 10:58:23;;;;;;;15.23;2.83;;;;;;;15.69;100.00;102197.09;5089202;28;20048;-57
2022/11/10 11:00:55;;;;;;;17.65;2.95;;;;;;;15.63;100.00;102194.84;5088969;28;20795;-58
2022/11/10 11:03:30;;;;;;;12.45;3.10;;;;;;;15.34;100.00;102197.56;5089637;28;20048;-55
2022/11/10 11:06:04;;;;;;;18.63;3.10;;;;;;;15.26;100.00;102199.03;5089802;28;20119;-56
2022/11/10 11:08:32;;;;;;;16.35;2.70;;;;;;;15.27;100.00;102195.41;5088060;28;20036;-56
2022/11/10 11:11:10;;;;;;;14.10;2.97;;;;;;;15.30;100.00;102201.38;5092434;28;20102;-55
2022/11/10 11:13:38;;;;;;;10.13;2.55;;;;;;;15.18;100.00;102197.69;5091128;28;20398;-56
2022/11/10 11:16:11;;;;;;;11.73;2.85;;;;;;;15.21;100.00;102188.72;5091402;28;20059;-56
2022/11/10 11:18:39;;;;;;;;;;;;;;;15.27;100.00;102192.75;5089256;28;20052;-56
2022/11/10 11:21:14;;;;;;;15.65;3.05;;;;;;;15.00;100.00;102191.75;5089170;28;19920;-56
2022/11/10 11:24:04;;;;;;;12.15;2.85;;;;;;;15.12;100.00;102197.22;5089610;28;20051;-56
2022/11/10 11:26:45;;;;;;;14.18;2.88;;;;;;;15.17;100.00;102200.44;5092523;28;20441;-56
2022/11/10 11:29:34;;;;;;;14.65;2.90;;;;;;;15.39;100.00;102207.88;5092054;28;20044;-55
2022/11/10 11:32:20;;;;;;;14.10;3.03;;;;;;;15.32;100.00;102209.22;5092089;28;20055;-56
2022/11/10 11:35:01;;;;;;;14.43;3.30;;;;;;;15.24;100.00;102217.66;5090663;28;20052;-56
2022/11/10 11:37:43;;;;;;;19.50;2.63;;;;;;;15.26;100.00;102218.41;5091926;28;20123;-58
2022/11/10 11:40:24;;;;;;;11.02;2.67;;;;;;;15.25;100.00;102229.97;5088239;28;20048;-58